Time;durP1;ratioP1;P1;durP2;ratioP2;P2;SDS_P1;SDS_P2;PMS_P1;PMS_P2;Temp;Humidity;BMP_temperature;BMP_pressure;BME280_temperature;BME280_humidity;BME280_pressure;Samples;Min_cycle;Max_cycle;Signal;HPM_P1;HPM_P2
2022/04/30 00:00:21;;;;;;;12.97;6.97;;;;;;;10.51;80.79;96689.03;5076944;28;20224;-69
2022/04/30 00:02:47;;;;;;;13.30;7.63;;;;;;;10.36;81.25;96697.75;5075422;28;20195;-69
2022/04/30 00:05:14;;;;;;;13.90;7.53;;;;;;;10.36;81.67;96692.47;5076953;28;20627;-69
2022/04/30 00:07:41;;;;;;;13.57;6.97;;;;;;;10.49;81.11;96692.81;5079924;28;20260;-69
2022/04/30 00:10:08;;;;;;;13.43;7.33;;;;;;;10.53;79.02;96689.69;5077081;28;20227;-69
2022/04/30 00:12:36;;;;;;;15.47;6.77;;;;;;;10.34;81.35;96690.00;5080127;28;20212;-69
2022/04/30 00:15:03;;;;;;;16.80;7.67;;;;;;;10.09;82.94;96690.16;5080924;28;20227;-69
2022/04/30 00:17:29;;;;;;;12.40;6.87;;;;;;;9.99;83.50;96688.66;5080564;28;20234;-69
2022/04/30 00:19:56;;;;;;;13.10;7.27;;;;;;;10.03;82.58;96689.97;5080707;28;20238;-69
2022/04/30 00:22:22;;;;;;;12.23;6.60;;;;;;;9.82;83.00;96690.41;5080104;28;20215;-69
2022/04/30 00:24:49;;;;;;;12.70;7.33;;;;;;;10.14;82.20;96687.84;5081139;28;20203;-69
2022/04/30 00:27:17;;;;;;;15.40;7.30;;;;;;;10.27;80.90;96688.19;5080262;28;20200;-69
2022/04/30 00:29:46;;;;;;;12.93;7.03;;;;;;;10.31;81.95;96689.53;5080799;28;20369;-69
2022/04/30 00:32:14;;;;;;;15.93;7.10;;;;;;;10.38;80.66;96687.88;5079951;28;20208;-69
2022/04/30 00:34:41;;;;;;;16.40;7.17;;;;;;;10.39;80.99;96679.81;5079956;28;20199;-69
2022/04/30 00:37:08;;;;;;;12.37;6.43;;;;;;;10.20;80.79;96683.75;5080528;28;20231;-69
2022/04/30 00:39:35;;;;;;;12.30;6.80;;;;;;;10.17;81.83;96684.91;5080476;28;20963;-69
2022/04/30 00:42:02;;;;;;;13.27;6.60;;;;;;;10.26;81.44;96685.72;5079849;28;20196;-69
2022/04/30 00:44:29;;;;;;;13.70;7.33;;;;;;;10.15;82.05;96688.69;5079735;28;20294;-69
2022/04/30 00:46:56;;;;;;;13.23;7.33;;;;;;;10.32;82.08;96677.19;5080424;28;20204;-70
2022/04/30 00:49:23;;;;;;;15.43;6.57;;;;;;;10.20;81.04;96676.69;5079511;28;20232;-69
2022/04/30 00:51:51;;;;;;;15.20;6.67;;;;;;;10.32;81.03;96677.97;5080625;28;20208;-69
2022/04/30 00:54:20;;;;;;;16.03;7.33;;;;;;;10.32;82.32;96676.19;5080060;28;20208;-69
2022/04/30 00:56:51;;;;;;;17.00;7.33;;;;;;;10.15;82.00;96676.34;5080397;28;20284;-69
2022/04/30 00:59:18;;;;;;;15.40;7.57;;;;;;;10.07;83.00;96675.50;5079480;28;21024;-69
2022/04/30 01:01:46;;;;;;;13.53;7.47;;;;;;;9.92;83.44;96671.84;5080975;28;20203;-69
2022/04/30 01:04:14;;;;;;;16.20;8.20;;;;;;;10.03;84.46;96666.28;5079392;28;20687;-69
2022/04/30 01:06:51;;;;;;;15.23;7.93;;;;;;;10.39;82.03;96669.25;5079852;28;20207;-69
2022/04/30 01:09:20;;;;;;;18.53;8.00;;;;;;;10.18;82.50;96667.28;5077096;28;20242;-69
2022/04/30 01:11:49;;;;;;;17.77;7.77;;;;;;;10.19;82.16;96667.13;5080409;28;20208;-69
2022/04/30 01:14:16;;;;;;;16.07;7.87;;;;;;;10.18;82.69;96654.94;5079076;28;20203;-69
2022/04/30 01:16:44;;;;;;;13.13;7.37;;;;;;;10.20;82.92;96660.88;5079775;28;20602;-69
2022/04/30 01:19:19;;;;;;;17.47;8.00;;;;;;;10.21;83.49;96652.00;5078619;28;20242;-70
2022/04/30 01:21:50;;;;;;;18.90;8.13;;;;;;;10.20;83.55;96658.25;5080100;28;20211;-69
2022/04/30 01:24:21;;;;;;;15.07;7.80;;;;;;;10.36;82.81;96655.59;5078824;28;20203;-69
2022/04/30 01:26:49;;;;;;;16.40;7.87;;;;;;;9.81;84.16;96653.72;5079577;28;20204;-69
2022/04/30 01:29:18;;;;;;;14.57;7.73;;;;;;;9.84;84.34;96653.44;5079124;28;20234;-69
2022/04/30 01:37:24;;;;;;;10.50;6.83;;;;;;;10.00;83.00;96643.75;5079637;28;20237;-69
2022/04/30 01:39:56;;;;;;;13.23;6.97;;;;;;;10.19;82.57;96630.25;5079157;28;20220;-69
2022/04/30 01:42:23;;;;;;;14.13;7.83;;;;;;;10.10;82.51;96623.34;5079110;28;20211;-69
2022/04/30 01:44:49;;;;;;;15.60;7.73;;;;;;;9.70;83.97;96635.63;5079385;28;20652;-69
2022/04/30 01:47:18;;;;;;;16.37;9.03;;;;;;;9.95;83.96;96630.25;5079277;28;20219;-69
2022/04/30 01:49:45;;;;;;;15.63;8.60;;;;;;;9.89;84.57;96624.78;5078718;28;20238;-69
2022/04/30 01:52:13;;;;;;;16.60;8.17;;;;;;;10.07;84.05;96623.69;5078717;28;20210;-69
2022/04/30 01:54:40;;;;;;;16.23;8.30;;;;;;;10.02;83.76;96631.25;5078085;28;20215;-69
2022/04/30 01:57:08;;;;;;;18.53;8.67;;;;;;;10.20;84.40;96628.47;5079232;28;20224;-69
2022/04/30 01:59:34;;;;;;;14.57;8.17;;;;;;;9.80;83.91;96629.22;5079083;28;20224;-69
2022/04/30 02:02:02;;;;;;;16.63;8.17;;;;;;;9.68;85.20;96622.63;5078740;28;20222;-69
2022/04/30 02:04:30;;;;;;;11.23;6.70;;;;;;;9.65;86.81;96618.66;5077864;28;20207;-69
2022/04/30 02:06:59;;;;;;;19.63;8.33;;;;;;;9.84;86.06;96616.56;5079112;28;20582;-69
2022/04/30 02:09:27;;;;;;;16.50;9.00;;;;;;;9.80;85.98;96615.22;5077059;28;20231;-69
2022/04/30 02:11:57;;;;;;;17.20;8.60;;;;;;;9.89;86.15;96609.81;5079020;28;20394;-69
2022/04/30 02:14:26;;;;;;;18.40;8.93;;;;;;;9.99;86.25;96613.16;5078073;28;20347;-69
2022/04/30 02:16:52;;;;;;;18.37;8.73;;;;;;;10.02;85.56;96604.91;5078893;28;20234;-69
2022/04/30 02:19:21;;;;;;;15.97;8.60;;;;;;;10.30;85.21;96603.59;5079265;28;20235;-69
2022/04/30 02:21:48;;;;;;;19.27;8.47;;;;;;;10.22;84.64;96598.34;5077968;28;20598;-69
2022/04/30 02:24:15;;;;;;;22.03;8.13;;;;;;;10.05;85.25;96596.69;5077844;28;20213;-69
2022/04/30 02:26:43;;;;;;;14.87;7.67;;;;;;;10.21;85.02;96587.94;5078638;28;20622;-69
2022/04/30 02:29:10;;;;;;;20.57;8.77;;;;;;;10.15;84.95;96584.19;5077642;28;20228;-69
2022/04/30 02:31:38;;;;;;;19.33;9.50;;;;;;;10.26;85.46;96581.22;5077122;28;20206;-69
2022/04/30 02:34:04;;;;;;;21.13;9.00;;;;;;;10.07;85.66;96580.72;5074422;28;20199;-69
2022/04/30 02:36:31;;;;;;;17.73;9.50;;;;;;;10.14;85.26;96582.53;5077968;28;20223;-69
2022/04/30 02:38:59;;;;;;;20.13;10.07;;;;;;;10.12;85.71;96581.88;5077716;28;20219;-69
2022/04/30 02:41:28;;;;;;;26.47;10.97;;;;;;;9.91;86.72;96585.97;5078402;28;20804;-69
2022/04/30 02:43:55;;;;;;;24.10;10.43;;;;;;;10.13;86.29;96585.31;5077370;28;20232;-69
2022/04/30 02:46:22;;;;;;;29.77;11.53;;;;;;;10.37;85.18;96589.59;5077647;28;20920;-69
2022/04/30 02:48:50;;;;;;;19.77;10.17;;;;;;;10.53;85.07;96588.75;5078511;28;20204;-69
2022/04/30 02:51:17;;;;;;;20.33;10.03;;;;;;;10.53;84.37;96586.09;5077649;28;21225;-69
2022/04/30 02:53:45;;;;;;;24.33;10.33;;;;;;;10.69;84.74;96589.53;5077123;28;20204;-69
2022/04/30 02:56:11;;;;;;;19.90;10.03;;;;;;;10.53;84.33;96594.00;5077275;28;20214;-69
2022/04/30 03:01:22;;;;;;;20.83;10.73;;;;;;;10.46;84.87;96575.41;5077112;28;20338;-69
2022/04/30 03:03:50;;;;;;;26.90;10.97;;;;;;;10.70;84.48;96563.97;5077273;28;20211;-69
2022/04/30 03:06:17;;;;;;;23.53;10.73;;;;;;;10.49;85.16;96566.34;5077621;28;20214;-69
2022/04/30 03:08:46;;;;;;;25.37;10.53;;;;;;;10.71;85.30;96566.44;5075861;28;21332;-69
2022/04/30 03:11:13;;;;;;;19.97;9.63;;;;;;;10.07;86.56;96571.03;5077528;28;20204;-69
2022/04/30 03:13:40;;;;;;;22.70;10.83;;;;;;;10.30;85.32;96569.34;5076845;28;20203;-69
2022/04/30 03:21:45;;;;;;;18.40;9.87;;;;;;;10.60;85.21;96568.63;5077549;28;20214;-69
2022/04/30 03:24:16;;;;;;;19.77;9.43;;;;;;;10.75;85.05;96566.94;5076817;28;20215;-69
2022/04/30 03:26:43;;;;;;;19.60;10.67;;;;;;;10.55;85.47;96560.41;5077613;28;20207;-69
2022/04/30 03:29:10;;;;;;;20.57;10.03;;;;;;;10.37;86.37;96567.69;5078105;28;20324;-69
2022/04/30 03:31:39;;;;;;;20.57;10.20;;;;;;;10.57;85.53;96571.59;5077136;28;20219;-69
2022/04/30 03:34:08;;;;;;;23.93;10.23;;;;;;;10.79;85.58;96576.13;5075919;28;20632;-69
2022/04/30 03:36:34;;;;;;;19.03;9.97;;;;;;;10.53;86.67;96573.75;5077542;28;21553;-69
2022/04/30 03:39:01;;;;;;;19.47;10.17;;;;;;;10.54;86.58;96574.59;5077330;28;20738;-69
2022/04/30 03:41:28;;;;;;;20.70;9.33;;;;;;;10.48;86.84;96573.41;5076530;28;20200;-69
2022/04/30 03:43:54;;;;;;;19.87;10.07;;;;;;;10.31;88.00;96573.63;5076424;28;20771;-69
2022/04/30 03:46:21;;;;;;;17.30;9.47;;;;;;;10.48;87.82;96578.69;5077366;28;20688;-69
2022/04/30 03:48:53;;;;;;;16.43;8.93;;;;;;;10.66;87.35;96575.84;5076552;28;20208;-69
2022/04/30 03:51:22;;;;;;;19.60;9.27;;;;;;;10.87;87.19;96573.47;5077068;28;20199;-69
2022/04/30 03:53:48;;;;;;;15.30;8.70;;;;;;;10.61;87.87;96584.25;5076280;28;20208;-69
2022/04/30 03:56:17;;;;;;;18.70;9.83;;;;;;;10.70;87.71;96585.06;5076592;28;20203;-69
2022/04/30 03:58:43;;;;;;;17.97;9.43;;;;;;;10.57;87.76;96585.59;5077283;28;20208;-69
2022/04/30 04:01:10;;;;;;;20.23;9.27;;;;;;;10.72;87.34;96591.81;5076987;28;20211;-69
2022/04/30 04:03:37;;;;;;;17.50;9.40;;;;;;;10.80;86.55;96598.88;5076015;28;20313;-69
2022/04/30 04:06:03;;;;;;;17.00;9.37;;;;;;;10.74;87.12;96596.91;5077231;28;20204;-69
2022/04/30 04:08:31;;;;;;;16.40;9.50;;;;;;;10.89;86.47;96595.22;5074309;28;20204;-69
2022/04/30 04:10:58;;;;;;;16.80;9.13;;;;;;;10.70;86.51;96606.16;5076896;28;20206;-69
2022/04/30 04:18:54;;;;;;;19.07;10.47;;;;;;;10.59;85.88;96609.13;5075949;28;20234;-69
2022/04/30 04:21:21;;;;;;;21.97;9.97;;;;;;;10.58;86.18;96623.31;5076201;28;20215;-69
2022/04/30 04:26:33;;;;;;;18.77;9.33;;;;;;;10.56;86.07;96620.81;5076622;28;20577;-69
2022/04/30 04:28:59;;;;;;;18.17;9.50;;;;;;;10.76;85.57;96632.66;5076426;28;20215;-69
2022/04/30 04:31:26;;;;;;;23.63;9.80;;;;;;;10.55;86.36;96636.81;5075580;28;20695;-69
2022/04/30 04:33:53;;;;;;;25.40;10.23;;;;;;;10.46;86.71;96629.91;5075964;28;20204;-71
2022/04/30 04:36:19;;;;;;;17.33;9.40;;;;;;;10.62;87.06;96637.81;5075933;28;20593;-71
2022/04/30 04:38:46;;;;;;;18.30;9.60;;;;;;;10.77;86.44;96634.31;5075540;28;20259;-69
2022/04/30 04:41:14;;;;;;;15.53;9.00;;;;;;;10.91;87.67;96632.78;5076341;28;20204;-69
2022/04/30 04:43:40;;;;;;;23.00;10.40;;;;;;;10.84;86.27;96634.44;5075896;28;20677;-69
2022/04/30 04:46:07;;;;;;;16.20;9.00;;;;;;;10.93;86.26;96631.59;5075416;28;20200;-69
2022/04/30 04:48:36;;;;;;;19.67;9.80;;;;;;;11.07;85.63;96637.03;5076106;28;20210;-69
2022/04/30 04:51:03;;;;;;;20.80;9.90;;;;;;;10.82;86.56;96633.78;5076290;28;20881;-69
2022/04/30 04:53:30;;;;;;;21.30;10.07;;;;;;;10.82;86.90;96631.16;5076439;28;20695;-69
2022/04/30 04:55:57;;;;;;;22.83;9.50;;;;;;;10.90;88.28;96633.78;5079598;28;20962;-69
2022/04/30 04:58:24;;;;;;;20.03;9.63;;;;;;;11.09;87.96;96640.28;5080166;28;20228;-69
2022/04/30 05:00:51;;;;;;;21.70;11.00;;;;;;;11.03;87.03;96640.97;5079460;28;20219;-69
2022/04/30 05:03:17;;;;;;;21.87;10.97;;;;;;;11.23;85.42;96641.41;5078953;28;20639;-69
2022/04/30 05:05:44;;;;;;;21.93;9.87;;;;;;;11.24;84.88;96637.75;5079371;28;20219;-69
2022/04/30 05:08:10;;;;;;;19.10;10.07;;;;;;;11.28;84.45;96637.25;5079217;28;20204;-69
2022/04/30 05:10:37;;;;;;;20.60;10.80;;;;;;;11.15;85.71;96638.78;5076470;28;20394;-69
2022/04/30 05:13:03;;;;;;;23.87;10.70;;;;;;;11.28;85.61;96628.53;5079091;28;21075;-69
2022/04/30 05:15:31;;;;;;;21.43;10.57;;;;;;;11.62;85.13;96633.31;5079464;28;20206;-68
2022/04/30 05:17:58;;;;;;;20.27;10.60;;;;;;;11.36;85.30;96637.22;5080654;28;20226;-68
2022/04/30 05:20:25;;;;;;;24.10;11.93;;;;;;;11.56;84.96;96620.00;5079656;28;20231;-68
2022/04/30 05:22:52;;;;;;;21.17;11.67;;;;;;;11.55;86.37;96632.34;5079340;28;20215;-68
2022/04/30 05:25:18;;;;;;;24.40;11.53;;;;;;;11.43;85.41;96637.34;5079766;28;20524;-68
2022/04/30 05:27:45;;;;;;;49.97;16.07;;;;;;;11.38;82.88;96645.78;5079297;28;20570;-68
2022/04/30 05:30:12;;;;;;;27.23;12.47;;;;;;;11.48;82.81;96654.31;5079191;28;20234;-68
2022/04/30 05:32:40;;;;;;;24.90;12.00;;;;;;;11.46;83.20;96658.13;5079207;28;20219;-68
2022/04/30 05:35:07;;;;;;;32.60;13.80;;;;;;;11.42;83.26;96668.19;5079010;28;20207;-68
2022/04/30 05:37:34;;;;;;;25.67;12.50;;;;;;;11.36;83.22;96683.91;5079600;28;20227;-68
2022/04/30 05:40:00;;;;;;;23.90;11.40;;;;;;;10.94;83.93;96683.34;5079175;28;20577;-68
2022/04/30 05:42:27;;;;;;;51.23;12.97;;;;;;;11.21;83.33;96681.13;5078495;28;20231;-68
2022/04/30 05:44:53;;;;;;;31.27;11.53;;;;;;;11.32;82.57;96682.59;5079549;28;20219;-68
2022/04/30 05:47:20;;;;;;;20.27;9.33;;;;;;;11.37;81.62;96682.91;5079063;28;20204;-68
2022/04/30 05:49:48;;;;;;;22.13;10.43;;;;;;;11.75;81.19;96680.28;5079210;28;20231;-68
2022/04/30 05:52:15;;;;;;;21.63;10.60;;;;;;;11.48;81.26;96683.34;5079066;28;20230;-68
2022/04/30 05:54:41;;;;;;;23.90;10.63;;;;;;;11.57;81.37;96687.63;5079056;28;20199;-68
2022/04/30 05:57:08;;;;;;;19.97;10.57;;;;;;;11.50;80.90;96689.31;5079236;28;20211;-68
2022/04/30 05:59:34;;;;;;;21.53;9.97;;;;;;;11.30;81.97;96697.75;5079416;28;20224;-68
2022/04/30 06:02:00;;;;;;;18.73;10.80;;;;;;;11.38;83.09;96689.81;5078225;28;20214;-68
2022/04/30 06:04:28;;;;;;;19.67;9.70;;;;;;;11.35;83.42;96685.69;5078501;28;20214;-68
2022/04/30 06:06:56;;;;;;;22.33;11.77;;;;;;;11.89;82.47;96683.00;5078922;28;20290;-68
2022/04/30 06:09:23;;;;;;;21.90;11.30;;;;;;;11.94;81.32;96685.94;5076252;28;20223;-68
2022/04/30 06:11:49;;;;;;;25.77;11.60;;;;;;;12.07;80.95;96680.91;5078583;28;20213;-69
2022/04/30 06:14:15;;;;;;;25.40;12.00;;;;;;;12.12;79.61;96675.91;5078537;28;20208;-68
2022/04/30 06:16:42;;;;;;;21.77;11.53;;;;;;;12.23;79.43;96691.34;5078515;28;20211;-68
2022/04/30 06:19:08;;;;;;;28.43;11.77;;;;;;;12.57;78.59;96681.19;5078923;28;20228;-68
2022/04/30 06:21:35;;;;;;;26.67;11.63;;;;;;;12.53;78.77;96683.34;5078686;28;20204;-68
2022/04/30 06:24:03;;;;;;;22.30;10.83;;;;;;;12.63;78.67;96689.22;5077474;28;20207;-68
2022/04/30 06:26:29;;;;;;;23.70;11.40;;;;;;;12.44;78.27;96687.06;5078352;28;20550;-68
2022/04/30 06:28:56;;;;;;;22.50;11.10;;;;;;;12.43;77.65;96688.03;5078716;28;20269;-68
2022/04/30 06:31:23;;;;;;;27.53;11.30;;;;;;;12.46;77.15;96690.34;5078558;28;20230;-68
2022/04/30 06:33:52;;;;;;;17.97;9.23;;;;;;;12.60;76.47;96684.28;5077882;28;20298;-68
2022/04/30 06:36:18;;;;;;;25.03;10.60;;;;;;;12.83;75.61;96682.44;5078696;28;20212;-68
2022/04/30 06:38:44;;;;;;;25.00;11.73;;;;;;;12.88;75.65;96688.84;5077956;28;20224;-68
2022/04/30 06:41:12;;;;;;;23.77;10.33;;;;;;;13.04;75.35;96687.88;5078715;28;20214;-68
2022/04/30 06:43:40;;;;;;;22.67;10.30;;;;;;;12.99;75.80;96685.75;5077483;28;20204;-68
2022/04/30 06:46:07;;;;;;;20.53;11.53;;;;;;;13.43;74.02;96689.25;5077281;28;20306;-68
2022/04/30 06:48:34;;;;;;;22.20;11.33;;;;;;;13.45;74.16;96687.22;5077787;28;20560;-68
2022/04/30 06:51:00;;;;;;;23.23;11.67;;;;;;;13.40;75.09;96695.72;5078601;28;20234;-68
2022/04/30 06:58:59;;;;;;;25.40;11.60;;;;;;;13.31;76.10;96701.28;5078831;28;20279;-68
2022/04/30 07:01:29;;;;;;;24.60;12.53;;;;;;;13.23;76.95;96692.63;5077708;28;20207;-68
2022/04/30 07:04:01;;;;;;;25.67;12.13;;;;;;;13.41;76.74;96693.91;5076613;28;20208;-70
2022/04/30 07:06:28;;;;;;;22.00;11.90;;;;;;;13.72;74.94;96700.63;5078004;28;20312;-70
2022/04/30 07:08:55;;;;;;;27.97;13.60;;;;;;;13.55;75.39;96703.66;5076360;28;20220;-70
2022/04/30 07:11:23;;;;;;;29.97;12.77;;;;;;;13.78;75.95;96702.53;5077900;28;20200;-70
2022/04/30 07:13:49;;;;;;;25.63;12.17;;;;;;;13.69;75.82;96700.19;5076756;28;20697;-68
2022/04/30 07:16:16;;;;;;;24.73;12.47;;;;;;;13.61;76.66;96693.16;5077764;28;20199;-68
2022/04/30 07:18:42;;;;;;;28.50;11.90;;;;;;;13.62;77.84;96705.38;5077161;28;21130;-68
2022/04/30 07:21:09;;;;;;;27.20;13.23;;;;;;;13.69;77.30;96700.97;5077816;28;20207;-70
2022/04/30 07:23:35;;;;;;;31.97;14.47;;;;;;;13.78;76.92;96697.22;5076840;28;20208;-70
2022/04/30 07:26:02;;;;;;;29.03;13.40;;;;;;;13.84;77.02;96688.53;5077425;28;20581;-70
2022/04/30 07:28:33;;;;;;;27.37;14.63;;;;;;;14.03;77.10;96694.06;5077230;28;20208;-68
2022/04/30 07:31:00;;;;;;;32.27;13.93;;;;;;;13.84;77.67;96699.16;5077764;28;20207;-68
2022/04/30 07:33:26;;;;;;;29.87;13.93;;;;;;;13.97;77.08;96696.66;5076525;28;20204;-68
2022/04/30 07:35:54;;;;;;;31.47;14.23;;;;;;;13.79;76.88;96701.53;5077128;28;20204;-68
2022/04/30 07:38:20;;;;;;;33.67;13.87;;;;;;;13.67;77.74;96700.38;5076855;28;20227;-68
2022/04/30 07:40:47;;;;;;;29.33;13.53;;;;;;;13.53;77.87;96701.19;5077020;28;21215;-68
2022/04/30 07:43:13;;;;;;;32.70;12.40;;;;;;;13.60;78.16;96712.69;5076730;28;20676;-68
2022/04/30 07:45:41;;;;;;;27.90;13.30;;;;;;;13.98;77.52;96702.78;5077092;28;20203;-68
2022/04/30 07:48:08;;;;;;;26.83;12.97;;;;;;;13.74;77.64;96706.56;5077314;28;21037;-68
2022/04/30 07:50:36;;;;;;;25.00;12.10;;;;;;;13.79;78.49;96711.31;5077074;28;20322;-68
2022/04/30 07:53:03;;;;;;;30.57;14.30;;;;;;;13.79;78.39;96717.41;5076369;28;20676;-69
2022/04/30 07:55:29;;;;;;;32.90;14.17;;;;;;;13.85;78.70;96716.69;5077210;28;20219;-68
2022/04/30 07:57:57;;;;;;;32.87;14.80;;;;;;;14.11;78.87;96711.72;5077088;28;20223;-68
2022/04/30 08:00:23;;;;;;;32.40;14.90;;;;;;;14.23;78.88;96715.50;5076879;28;20232;-68
2022/04/30 08:02:51;;;;;;;33.53;15.03;;;;;;;14.44;78.82;96707.59;5077199;28;20211;-68
2022/04/30 08:05:18;;;;;;;30.07;14.83;;;;;;;14.21;80.36;96710.41;5076613;28;20208;-68
2022/04/30 08:07:44;;;;;;;30.83;14.32;;;;;;;14.21;78.83;96712.25;5077289;28;20207;-68
2022/04/30 08:10:10;;;;;;;27.63;11.57;;;;;;;14.05;79.96;96717.72;5074562;28;20220;-68
2022/04/30 08:12:37;;;;;;;33.97;15.03;;;;;;;14.38;80.02;96718.94;5076949;28;20211;-68
2022/04/30 08:15:04;;;;;;;37.17;16.90;;;;;;;14.47;80.59;96718.63;5076474;28;20204;-68
2022/04/30 08:17:31;;;;;;;31.77;15.47;;;;;;;14.33;81.71;96722.19;5076755;28;20211;-68
2022/04/30 08:19:59;;;;;;;35.30;16.47;;;;;;;14.51;81.14;96727.03;5076257;28;20342;-68
2022/04/30 08:22:25;;;;;;;34.83;16.40;;;;;;;14.41;81.69;96723.84;5074446;28;20227;-68
2022/04/30 08:24:52;;;;;;;37.33;15.85;;;;;;;14.49;81.19;96727.22;5076010;28;20204;-68
2022/04/30 08:27:18;;;;;;;35.40;15.67;;;;;;;14.60;80.88;96731.19;5077215;28;20215;-68
2022/04/30 08:29:45;;;;;;;37.83;16.60;;;;;;;14.78;81.34;96724.44;5080136;28;20945;-68
2022/04/30 08:32:12;;;;;;;30.95;14.30;;;;;;;14.40;79.93;96732.84;5079666;28;20323;-68
2022/04/30 08:34:38;;;;;;;29.50;14.98;;;;;;;14.75;80.21;96733.59;5079868;28;20203;-68
2022/04/30 08:37:06;;;;;;;33.57;15.97;;;;;;;15.12;81.42;96735.97;5080172;28;20211;-69
2022/04/30 08:39:33;;;;;;;31.38;15.00;;;;;;;14.70;81.68;96725.41;5080678;28;20235;-68
2022/04/30 08:41:59;;;;;;;31.90;15.55;;;;;;;15.04;78.94;96733.44;5080344;28;20215;-68
2022/04/30 08:44:26;;;;;;;32.22;15.98;;;;;;;14.92;79.36;96734.16;5080456;28;20227;-69
2022/04/30 08:46:53;;;;;;;33.70;15.60;;;;;;;14.90;79.44;96729.03;5080709;28;20200;-69
2022/04/30 08:49:20;;;;;;;35.17;15.05;;;;;;;14.67;80.88;96732.91;5080003;28;20228;-69
2022/04/30 08:51:46;;;;;;;30.33;15.18;;;;;;;14.77;81.26;96734.22;5080502;28;20214;-68
2022/04/30 08:54:14;;;;;;;30.40;15.43;;;;;;;15.01;82.76;96736.47;5079468;28;20199;-68
2022/04/30 08:56:52;;;;;;;37.72;16.70;;;;;;;15.19;80.30;96744.78;5080289;28;20204;-69
2022/04/30 08:59:18;;;;;;;33.70;15.60;;;;;;;14.74;80.12;96747.88;5078746;28;20232;-68
2022/04/30 09:01:46;;;;;;;32.67;16.05;;;;;;;14.73;80.74;96743.56;5079253;28;20204;-68
2022/04/30 09:04:12;;;;;;;38.47;16.80;;;;;;;14.56;80.82;96751.16;5079046;28;20208;-68
2022/04/30 09:06:45;;;;;;;40.30;17.60;;;;;;;14.73;80.25;96740.91;5078493;28;20212;-68
2022/04/30 09:09:12;;;;;;;37.38;17.38;;;;;;;14.65;82.46;96745.56;5076906;28;20255;-68
2022/04/30 09:11:40;;;;;;;35.83;16.45;;;;;;;15.09;80.98;96743.50;5079828;28;20214;-68
2022/04/30 09:14:06;;;;;;;40.42;17.17;;;;;;;14.84;81.37;96747.53;5079251;28;20214;-69
2022/04/30 09:16:33;;;;;;;37.13;15.55;;;;;;;14.75;81.24;96744.22;5079516;28;20207;-68
2022/04/30 09:19:04;;;;;;;37.67;17.05;;;;;;;15.36;81.37;96747.00;5079999;28;20321;-68
2022/04/30 09:21:30;;;;;;;39.72;17.17;;;;;;;14.77;81.06;96749.34;5079390;28;20292;-69
2022/04/30 09:24:04;;;;;;;35.17;16.98;;;;;;;15.22;81.59;96746.28;5079177;28;20209;-68
2022/04/30 09:26:40;;;;;;;34.43;15.47;;;;;;;14.80;83.16;96738.31;5080380;28;20243;-68
2022/04/30 09:29:20;;;;;;;33.67;16.80;;;;;;;15.24;84.33;96744.25;5079929;28;20215;-68
2022/04/30 09:31:49;;;;;;;35.47;15.75;;;;;;;15.03;86.61;96737.13;5079316;28;20291;-68
2022/04/30 09:39:42;;;;;;;34.65;16.90;;;;;;;14.68;85.87;96738.00;5078750;28;20290;-68
2022/04/30 09:42:10;;;;;;;36.60;16.15;;;;;;;14.80;86.39;96735.66;5079195;28;20346;-68
2022/04/30 09:44:37;;;;;;;40.97;17.52;;;;;;;14.77;87.09;96739.53;5079057;28;20203;-68
2022/04/30 09:47:05;;;;;;;42.17;18.23;;;;;;;14.65;85.50;96743.72;5077532;28;20315;-68
2022/04/30 09:55:01;;;;;;;36.37;17.10;;;;;;;14.59;84.85;96738.34;5079362;28;20226;-68
2022/04/30 09:57:33;;;;;;;34.23;16.17;;;;;;;14.94;85.03;96737.44;5079348;28;20314;-68
2022/04/30 10:00:00;;;;;;;34.63;16.17;;;;;;;14.87;85.48;96734.72;5079258;28;20347;-69
2022/04/30 10:02:28;;;;;;;35.17;17.00;;;;;;;14.49;85.27;96732.53;5077635;28;20203;-68
2022/04/30 10:04:57;;;;;;;39.17;17.27;;;;;;;14.76;85.52;96727.28;5078764;28;20307;-68
2022/04/30 10:07:25;;;;;;;36.58;17.33;;;;;;;15.05;84.49;96729.78;5079445;28;20207;-68
2022/04/30 10:10:02;;;;;;;37.75;18.08;;;;;;;14.80;83.38;96725.91;5075889;28;20317;-68
2022/04/30 10:12:33;;;;;;;37.97;17.23;;;;;;;15.12;83.23;96722.69;5078071;28;20200;-68
2022/04/30 10:15:10;;;;;;;35.97;17.37;;;;;;;15.58;83.20;96721.16;5078697;28;20208;-68
2022/04/30 10:17:41;;;;;;;37.05;17.58;;;;;;;14.93;82.39;96726.00;5078749;28;20215;-69
2022/04/30 10:20:15;;;;;;;38.22;17.13;;;;;;;15.10;81.51;96722.06;5078565;28;20319;-69
2022/04/30 10:22:49;;;;;;;36.28;17.85;;;;;;;15.30;80.79;96723.88;5078490;28;20238;-69
2022/04/30 10:25:16;;;;;;;33.90;15.43;;;;;;;14.74;83.08;96716.03;5078752;28;20211;-69
2022/04/30 10:27:45;;;;;;;36.50;16.25;;;;;;;15.10;83.27;96710.63;5078522;28;20207;-69
2022/04/30 10:30:23;;;;;;;32.75;16.17;;;;;;;15.40;81.84;96723.50;5078348;28;20874;-68
2022/04/30 10:32:59;;;;;;;35.33;17.05;;;;;;;15.55;82.86;96721.56;5077817;28;20208;-68
2022/04/30 10:35:30;;;;;;;34.92;15.90;;;;;;;15.57;81.22;96717.69;5078437;28;20239;-68
2022/04/30 10:38:08;;;;;;;36.13;16.48;;;;;;;15.46;80.69;96712.91;5079862;28;20278;-69
2022/04/30 10:40:39;;;;;;;30.73;15.20;;;;;;;15.25;81.31;96720.16;5078011;28;20881;-68
2022/04/30 10:43:17;;;;;;;35.50;16.27;;;;;;;15.63;78.96;96708.97;5077467;28;20299;-69
2022/04/30 10:45:43;;;;;;;34.03;16.15;;;;;;;15.55;78.61;96710.94;5078300;28;20199;-69
2022/04/30 10:48:10;;;;;;;30.95;15.70;;;;;;;15.55;79.26;96710.94;5078013;28;20215;-69
2022/04/30 10:50:36;;;;;;;33.15;16.77;;;;;;;15.68;79.32;96708.34;5076778;28;20238;-69
2022/04/30 10:53:03;;;;;;;32.20;16.38;;;;;;;16.07;79.13;96704.84;5077934;28;20203;-69
2022/04/30 10:55:31;;;;;;;32.30;16.05;;;;;;;16.16;79.50;96708.97;5077827;28;20211;-69
2022/04/30 10:57:58;;;;;;;31.33;16.33;;;;;;;15.94;76.86;96707.44;5078195;28;20214;-69
2022/04/30 11:00:26;;;;;;;32.08;14.65;;;;;;;16.09;78.00;96694.03;5077727;28;20236;-69
2022/04/30 11:02:53;;;;;;;33.90;15.80;;;;;;;15.58;77.51;96707.88;5077435;28;20652;-69
2022/04/30 11:05:22;;;;;;;32.72;15.82;;;;;;;15.24;78.71;96703.41;5077479;28;20344;-69
2022/04/30 11:07:49;;;;;;;33.38;15.20;;;;;;;14.95;80.99;96700.09;5078258;28;20265;-69
2022/04/30 11:10:15;;;;;;;33.55;15.52;;;;;;;15.09;80.00;96693.06;5074697;28;20219;-69
2022/04/30 11:12:43;;;;;;;33.35;15.38;;;;;;;15.20;79.94;96693.34;5077204;28;20212;-69
2022/04/30 11:15:11;;;;;;;31.80;15.05;;;;;;;15.33;79.33;96690.78;5077004;28;20231;-68
2022/04/30 11:17:47;;;;;;;36.47;15.43;;;;;;;15.52;77.88;96684.78;5077765;28;20203;-69
2022/04/30 11:20:22;;;;;;;35.40;15.07;;;;;;;15.71;77.85;96689.38;5077238;28;20227;-69
2022/04/30 11:22:52;;;;;;;31.50;16.15;;;;;;;15.45;78.90;96691.88;5077044;28;20318;-69
2022/04/30 11:25:19;;;;;;;33.10;15.52;;;;;;;15.69;78.54;96686.91;5077606;28;20593;-69
2022/04/30 11:27:45;;;;;;;33.42;15.93;;;;;;;15.55;77.64;96687.84;5077472;28;20232;-69
2022/04/30 11:30:13;;;;;;;25.05;14.23;;;;;;;15.84;78.60;96681.47;5075075;28;20227;-69
2022/04/30 11:32:39;;;;;;;28.67;15.52;;;;;;;15.71;77.71;96676.91;5075129;28;20210;-69
2022/04/30 11:35:08;;;;;;;33.60;16.38;;;;;;;15.48;78.70;96684.34;5077241;28;20200;-69
2022/04/30 11:37:38;;;;;;;28.88;14.75;;;;;;;15.28;79.81;96683.41;5074552;28;20210;-69
2022/04/30 11:40:05;;;;;;;26.77;13.43;;;;;;;15.35;78.70;96683.44;5076982;28;20312;-68
2022/04/30 11:42:31;;;;;;;35.65;15.40;;;;;;;15.47;79.28;96687.19;5076442;28;20215;-68
2022/04/30 11:44:58;;;;;;;30.85;14.75;;;;;;;15.09;80.85;96691.22;5077191;28;20215;-69
2022/04/30 11:47:25;;;;;;;30.63;15.15;;;;;;;15.32;80.46;96683.84;5077160;28;20699;-69
2022/04/30 11:50:03;;;;;;;28.00;14.20;;;;;;;15.50;80.31;96687.63;5077654;28;20232;-69
2022/04/30 11:52:32;;;;;;;31.50;14.93;;;;;;;15.49;79.82;96677.19;5075084;28;20208;-69
2022/04/30 11:55:01;;;;;;;31.80;15.77;;;;;;;15.47;80.00;96681.88;5076421;28;20212;-69
2022/04/30 11:57:28;;;;;;;31.33;15.80;;;;;;;15.48;80.34;96678.22;5076814;28;20204;-69
2022/04/30 11:59:56;;;;;;;34.08;16.10;;;;;;;15.44;80.31;96679.59;5077770;28;20585;-69